Aérodrome :
LOGIN :

S'inscrire | Disclaimer

   EN    FR    IT 

 










Légende :    VFR   VFR Marginal   IFR   IFR Intensif   IFR Très Intensif
Visi : 
Plafond : 
>= 8 km
>= 3000ft
5 à 8 km
1000 à 3000 ft
1500m à 5 km
500 à 1000 ft
800 à 1500m
200 à 500 ft
< 800m
< 200 ft
Symboles :   Orages  Brouillard  Fortes neiges  Fortes précipitations  Vent > 20 kt
SIGMETs :   Divers  Orages  Givrage  Turbulence  Onde Orograph.  Cendres Volcan.






- Altitude de l'aérodrome : 87 ft
- Code IATA : AHO


LIEA - Fertilia Alghero

DERNIER METAR :
  • 232020Z VRB01KT 9999 FEW030 08/05 Q1009

METARs EXPIRÉS :
  • 231950Z 25004KT 9999 SCT030 09/04 Q1008
  • 231920Z 23003KT 9999 SCT030 09/05 Q1008
  • 231850Z 21003KT 9999 FEW030 08/05 Q1008
  • 231820Z 31003KT 270V350 9999 SCT030 11/04 Q1007
  • 231750Z 28006KT 250V310 9999 SCT030 11/05 Q1007
  • 231720Z 27007KT 9999 SCT030 11/05 Q1006
  • 231650Z 28010KT 9999 SCT030 11/05 Q1006
  • 231620Z 28009KT 9999 SCT030 12/07 Q1005
  • 231550Z 28009G19KT 250V310 9999 -RA BKN035 11/08 Q1005
  • 231520Z 27013KT 9999 SCT030 13/07 Q1004

TAF TAF LIEA
Valide du 23 à 18h jusqu'au 24 à 18h UTC


231700Z 2318/2418 25007KT 9999 SCT030
TEMPO 2319/2323 RA
BECMG 2405/2407 19013KT
TEMPO 2409/2418 19016G28KT 4000 TSRA
BECMG 2417/2418 VRB05KT



MET'MAP, la Météo Aéronautique d'un coup d'oeil ! - Copyright ORBIFLY Décembre 2007 - Disclaimer

ORBIFLY MET'MAP TEAM :

Programmation & Développement : Alexandra Zaïnal
Sur une idée originale de : Baudouin d'Aumeries
Soutien technique & logistique : Manuel Goepfert
Assistance : Marc-Olivier Méhu




SOURCES & CREDITS :

   NOAA